sensor_id;sensor_type;location;lat;lon;timestamp;pressure;altitude;pressure_sealevel;temperature;humidity
21449;BME280;10885;52.830;13.788;2023-03-18T00:02:58;100651.25;;;7.75;51.25
21449;BME280;10885;52.830;13.788;2023-03-18T00:08:20;100646.38;;;7.79;51.47
21449;BME280;10885;52.830;13.788;2023-03-18T00:13:41;100651.59;;;7.80;51.17
21449;BME280;10885;52.830;13.788;2023-03-18T00:19:02;100657.56;;;7.81;51.59
21449;BME280;10885;52.830;13.788;2023-03-18T00:24:24;100645.69;;;7.81;51.34
21449;BME280;10885;52.830;13.788;2023-03-18T00:29:47;100649.91;;;7.81;51.48
21449;BME280;10885;52.830;13.788;2023-03-18T00:35:08;100656.00;;;7.83;51.06
21449;BME280;10885;52.830;13.788;2023-03-18T00:40:30;100652.34;;;7.79;51.53
21449;BME280;10885;52.830;13.788;2023-03-18T00:46:03;100644.81;;;7.81;51.11
21449;BME280;10885;52.830;13.788;2023-03-18T00:51:28;100628.63;;;7.80;51.62
21449;BME280;10885;52.830;13.788;2023-03-18T00:56:49;100642.16;;;7.79;51.83
21449;BME280;10885;52.830;13.788;2023-03-18T01:02:11;100625.97;;;7.79;52.10
21449;BME280;10885;52.830;13.788;2023-03-18T01:07:32;100616.44;;;7.76;49.73
21449;BME280;10885;52.830;13.788;2023-03-18T01:12:53;100618.84;;;7.86;49.67
21449;BME280;10885;52.830;13.788;2023-03-18T01:18:16;100611.50;;;7.91;48.58
21449;BME280;10885;52.830;13.788;2023-03-18T01:23:37;100619.78;;;8.00;46.71
21449;BME280;10885;52.830;13.788;2023-03-18T01:28:58;100629.31;;;8.28;44.89
21449;BME280;10885;52.830;13.788;2023-03-18T01:34:22;100618.03;;;8.38;44.74
21449;BME280;10885;52.830;13.788;2023-03-18T01:39:45;100615.53;;;8.51;42.90
21449;BME280;10885;52.830;13.788;2023-03-18T01:50:36;100615.28;;;8.60;43.00
21449;BME280;10885;52.830;13.788;2023-03-18T01:55:58;100604.25;;;8.61;42.96
21449;BME280;10885;52.830;13.788;2023-03-18T02:01:26;100600.00;;;8.61;42.52
21449;BME280;10885;52.830;13.788;2023-03-18T02:06:51;100592.28;;;8.60;42.22
21449;BME280;10885;52.830;13.788;2023-03-18T02:12:20;100594.81;;;8.60;41.65
21449;BME280;10885;52.830;13.788;2023-03-18T02:17:45;100591.69;;;8.64;42.04
21449;BME280;10885;52.830;13.788;2023-03-18T02:23:32;100601.97;;;8.65;41.76
21449;BME280;10885;52.830;13.788;2023-03-18T02:28:50;100593.91;;;8.59;41.98
21449;BME280;10885;52.830;13.788;2023-03-18T02:34:14;100588.81;;;8.59;41.93
21449;BME280;10885;52.830;13.788;2023-03-18T02:39:36;100600.00;;;8.61;42.02
21449;BME280;10885;52.830;13.788;2023-03-18T02:44:58;100602.28;;;8.56;41.55
21449;BME280;10885;52.830;13.788;2023-03-18T02:50:35;100590.97;;;8.53;41.52
21449;BME280;10885;52.830;13.788;2023-03-18T02:55:56;100583.41;;;8.54;41.91
21449;BME280;10885;52.830;13.788;2023-03-18T03:01:17;100598.22;;;8.47;41.95
21449;BME280;10885;52.830;13.788;2023-03-18T03:06:39;100588.31;;;8.51;41.74
21449;BME280;10885;52.830;13.788;2023-03-18T03:12:01;100590.50;;;8.59;41.81
21449;BME280;10885;52.830;13.788;2023-03-18T03:17:23;100572.31;;;8.54;42.19
21449;BME280;10885;52.830;13.788;2023-03-18T03:22:44;100585.47;;;8.47;41.84
21449;BME280;10885;52.830;13.788;2023-03-18T03:28:07;100590.47;;;8.45;41.96
21449;BME280;10885;52.830;13.788;2023-03-18T03:33:28;100598.81;;;8.43;42.00
21449;BME280;10885;52.830;13.788;2023-03-18T03:38:50;100601.47;;;8.44;42.05
21449;BME280;10885;52.830;13.788;2023-03-18T03:44:10;100606.59;;;8.44;41.83
21449;BME280;10885;52.830;13.788;2023-03-18T03:49:31;100599.63;;;8.42;41.90
21449;BME280;10885;52.830;13.788;2023-03-18T03:54:53;100599.38;;;8.39;41.90
21449;BME280;10885;52.830;13.788;2023-03-18T04:00:19;100604.13;;;8.21;42.46
21449;BME280;10885;52.830;13.788;2023-03-18T04:05:42;100608.38;;;8.20;42.45
21449;BME280;10885;52.830;13.788;2023-03-18T04:11:04;100603.16;;;8.19;42.88
21449;BME280;10885;52.830;13.788;2023-03-18T04:16:25;100608.13;;;8.17;42.72
21449;BME280;10885;52.830;13.788;2023-03-18T04:21:46;100613.94;;;8.14;42.91
21449;BME280;10885;52.830;13.788;2023-03-18T04:27:09;100608.72;;;8.13;42.99
21449;BME280;10885;52.830;13.788;2023-03-18T04:32:31;100616.94;;;8.09;43.31
21449;BME280;10885;52.830;13.788;2023-03-18T04:37:53;100617.22;;;8.00;43.44
21449;BME280;10885;52.830;13.788;2023-03-18T04:43:16;100619.78;;;8.00;43.29
21449;BME280;10885;52.830;13.788;2023-03-18T04:48:40;100648.63;;;7.99;43.72
21449;BME280;10885;52.830;13.788;2023-03-18T04:54:02;100638.31;;;7.97;43.35
21449;BME280;10885;52.830;13.788;2023-03-18T04:59:24;100645.00;;;7.84;43.92
21449;BME280;10885;52.830;13.788;2023-03-18T05:04:48;100634.72;;;7.82;43.85
21449;BME280;10885;52.830;13.788;2023-03-18T05:10:10;100640.44;;;7.91;45.10
21449;BME280;10885;52.830;13.788;2023-03-18T05:15:32;100645.78;;;7.94;43.81
21449;BME280;10885;52.830;13.788;2023-03-18T05:20:54;100645.69;;;7.81;44.01
21449;BME280;10885;52.830;13.788;2023-03-18T05:26:16;100642.94;;;7.78;44.04
21449;BME280;10885;52.830;13.788;2023-03-18T05:31:39;100641.38;;;7.80;44.06
21449;BME280;10885;52.830;13.788;2023-03-18T05:37:00;100639.75;;;7.69;44.53
21449;BME280;10885;52.830;13.788;2023-03-18T05:42:22;100655.72;;;7.66;45.04
21449;BME280;10885;52.830;13.788;2023-03-18T05:47:44;100650.63;;;7.66;44.60
21449;BME280;10885;52.830;13.788;2023-03-18T05:53:07;100648.31;;;7.57;44.76
21449;BME280;10885;52.830;13.788;2023-03-18T05:58:31;100641.09;;;7.52;44.89
21449;BME280;10885;52.830;13.788;2023-03-18T06:04:09;100641.22;;;7.53;44.57
21449;BME280;10885;52.830;13.788;2023-03-18T06:09:31;100658.84;;;7.62;44.77
21449;BME280;10885;52.830;13.788;2023-03-18T06:14:55;100652.63;;;7.70;45.17
21449;BME280;10885;52.830;13.788;2023-03-18T06:20:18;100658.38;;;7.68;45.28
21449;BME280;10885;52.830;13.788;2023-03-18T06:25:40;100658.94;;;7.64;45.09
21449;BME280;10885;52.830;13.788;2023-03-18T06:31:02;100655.16;;;7.70;45.03
21449;BME280;10885;52.830;13.788;2023-03-18T06:36:23;100656.59;;;7.79;44.94
21449;BME280;10885;52.830;13.788;2023-03-18T06:41:45;100651.63;;;7.93;44.56
21449;BME280;10885;52.830;13.788;2023-03-18T06:47:21;100662.41;;;7.89;44.71
21449;BME280;10885;52.830;13.788;2023-03-18T06:52:48;100661.66;;;7.90;44.60
21449;BME280;10885;52.830;13.788;2023-03-18T06:58:16;100670.91;;;8.02;45.33
21449;BME280;10885;52.830;13.788;2023-03-18T07:03:51;100674.34;;;8.14;44.79
21449;BME280;10885;52.830;13.788;2023-03-18T07:09:13;100679.06;;;8.21;44.74
21449;BME280;10885;52.830;13.788;2023-03-18T07:14:37;100683.00;;;8.29;44.81
21449;BME280;10885;52.830;13.788;2023-03-18T07:19:58;100693.31;;;8.43;44.66
21449;BME280;10885;52.830;13.788;2023-03-18T07:25:20;100689.63;;;8.51;44.41
21449;BME280;10885;52.830;13.788;2023-03-18T07:30:43;100698.00;;;8.62;43.78
21449;BME280;10885;52.830;13.788;2023-03-18T07:36:04;100693.16;;;8.91;43.10
21449;BME280;10885;52.830;13.788;2023-03-18T07:41:25;100703.31;;;9.30;43.29
21449;BME280;10885;52.830;13.788;2023-03-18T07:46:46;100699.69;;;9.53;42.97
21449;BME280;10885;52.830;13.788;2023-03-18T07:52:08;100708.38;;;10.25;41.50
21449;BME280;10885;52.830;13.788;2023-03-18T07:57:29;100708.84;;;11.05;39.40
21449;BME280;10885;52.830;13.788;2023-03-18T08:02:51;100724.63;;;11.43;38.61
21449;BME280;10885;52.830;13.788;2023-03-18T08:08:12;100719.78;;;12.43;37.23
21449;BME280;10885;52.830;13.788;2023-03-18T08:13:33;100712.22;;;14.63;33.11
21449;BME280;10885;52.830;13.788;2023-03-18T08:18:53;100709.66;;;16.39;30.08
21449;BME280;10885;52.830;13.788;2023-03-18T08:24:14;100718.69;;;18.40;27.60
21449;BME280;10885;52.830;13.788;2023-03-18T08:29:35;100736.25;;;19.16;25.95
21449;BME280;10885;52.830;13.788;2023-03-18T08:34:56;100751.28;;;18.93;26.34
21449;BME280;10885;52.830;13.788;2023-03-18T08:40:17;100747.69;;;18.25;27.92
21449;BME280;10885;52.830;13.788;2023-03-18T08:45:39;100746.13;;;18.96;27.05
21449;BME280;10885;52.830;13.788;2023-03-18T08:51:04;100743.25;;;18.53;28.42
21449;BME280;10885;52.830;13.788;2023-03-18T08:56:28;100751.09;;;19.93;26.13
21449;BME280;10885;52.830;13.788;2023-03-18T09:01:49;100756.38;;;21.34;24.63
21449;BME280;10885;52.830;13.788;2023-03-18T09:07:11;100767.69;;;23.47;22.02
21449;BME280;10885;52.830;13.788;2023-03-18T09:12:32;100758.13;;;21.89;23.91
21449;BME280;10885;52.830;13.788;2023-03-18T09:17:53;100753.06;;;20.04;26.91
21449;BME280;10885;52.830;13.788;2023-03-18T09:23:31;100751.16;;;18.56;29.01
21449;BME280;10885;52.830;13.788;2023-03-18T09:28:52;100757.94;;;17.38;31.10
21449;BME280;10885;52.830;13.788;2023-03-18T09:34:13;100773.09;;;18.07;30.98
21449;BME280;10885;52.830;13.788;2023-03-18T09:39:34;100781.63;;;20.85;27.15
21449;BME280;10885;52.830;13.788;2023-03-18T09:45:02;100779.34;;;21.03;25.73
21449;BME280;10885;52.830;13.788;2023-03-18T09:50:38;100764.16;;;20.81;26.88
21449;BME280;10885;52.830;13.788;2023-03-18T09:56:01;100778.31;;;23.70;23.38
21449;BME280;10885;52.830;13.788;2023-03-18T10:01:24;100782.16;;;26.51;20.19
21449;BME280;10885;52.830;13.788;2023-03-18T10:06:50;100783.00;;;26.59;19.87
21449;BME280;10885;52.830;13.788;2023-03-18T10:12:26;100792.88;;;27.53;19.66
21449;BME280;10885;52.830;13.788;2023-03-18T10:18:20;100788.34;;;28.46;18.74
21449;BME280;10885;52.830;13.788;2023-03-18T10:23:54;100775.88;;;29.21;17.60
21449;BME280;10885;52.830;13.788;2023-03-18T10:29:43;100777.09;;;30.45;17.30
21449;BME280;10885;52.830;13.788;2023-03-18T10:35:29;100773.34;;;29.15;17.97
21449;BME280;10885;52.830;13.788;2023-03-18T10:40:54;100769.38;;;30.34;16.78
21449;BME280;10885;52.830;13.788;2023-03-18T10:46:20;100771.13;;;29.42;18.11
21449;BME280;10885;52.830;13.788;2023-03-18T10:51:53;100770.16;;;30.78;16.96
21449;BME280;10885;52.830;13.788;2023-03-18T10:57:19;100766.91;;;30.25;17.22
21449;BME280;10885;52.830;13.788;2023-03-18T11:02:41;100764.78;;;28.98;18.53
21449;BME280;10885;52.830;13.788;2023-03-18T11:08:05;100759.91;;;27.06;21.16
21449;BME280;10885;52.830;13.788;2023-03-18T11:13:28;100769.38;;;30.34;18.29
21449;BME280;10885;52.830;13.788;2023-03-18T11:18:50;100776.38;;;32.15;16.77
21449;BME280;10885;52.830;13.788;2023-03-18T11:24:25;100776.75;;;29.70;18.28
21449;BME280;10885;52.830;13.788;2023-03-18T11:29:58;100758.72;;;29.47;19.18
21449;BME280;10885;52.830;13.788;2023-03-18T11:35:23;100757.69;;;30.83;18.06
21449;BME280;10885;52.830;13.788;2023-03-18T11:40:44;100756.22;;;29.87;18.27
21449;BME280;10885;52.830;13.788;2023-03-18T11:46:07;100747.91;;;29.61;19.21
21449;BME280;10885;52.830;13.788;2023-03-18T11:58:02;100761.72;;;28.00;21.24
21449;BME280;10885;52.830;13.788;2023-03-18T12:04:07;100752.66;;;25.69;24.29
21449;BME280;10885;52.830;13.788;2023-03-18T12:09:45;100748.25;;;25.91;23.89
21449;BME280;10885;52.830;13.788;2023-03-18T12:15:20;100747.91;;;22.79;28.87
21449;BME280;10885;52.830;13.788;2023-03-18T12:20:50;100747.41;;;23.17;29.08
21449;BME280;10885;52.830;13.788;2023-03-18T12:26:45;100751.41;;;22.81;28.99
21449;BME280;10885;52.830;13.788;2023-03-18T12:49:35;100750.81;;;23.07;29.33
21449;BME280;10885;52.830;13.788;2023-03-18T12:55:14;100746.41;;;21.62;31.69
21449;BME280;10885;52.830;13.788;2023-03-18T13:00:51;100744.22;;;21.33;32.56
21449;BME280;10885;52.830;13.788;2023-03-18T13:06:22;100743.88;;;21.12;32.80
21449;BME280;10885;52.830;13.788;2023-03-18T13:12:07;100739.81;;;21.87;31.47
21449;BME280;10885;52.830;13.788;2023-03-18T13:17:34;100735.78;;;22.11;30.53
21449;BME280;10885;52.830;13.788;2023-03-18T13:40:21;100738.88;;;20.31;34.47
21449;BME280;10885;52.830;13.788;2023-03-18T13:45:47;100733.88;;;20.42;34.02
21449;BME280;10885;52.830;13.788;2023-03-18T13:51:19;100741.31;;;20.22;34.47
21449;BME280;10885;52.830;13.788;2023-03-18T13:57:16;100736.69;;;20.53;34.03
21449;BME280;10885;52.830;13.788;2023-03-18T14:08:04;100738.00;;;20.73;34.16
21449;BME280;10885;52.830;13.788;2023-03-18T14:13:33;100731.44;;;20.50;34.93
21449;BME280;10885;52.830;13.788;2023-03-18T14:19:13;100728.72;;;20.91;34.22
21449;BME280;10885;52.830;13.788;2023-03-18T14:24:37;100738.22;;;20.43;34.49
21449;BME280;10885;52.830;13.788;2023-03-18T14:36:08;100736.03;;;19.06;37.68
21449;BME280;10885;52.830;13.788;2023-03-18T14:41:33;100729.88;;;19.03;38.18
21449;BME280;10885;52.830;13.788;2023-03-18T14:46:59;100732.06;;;19.21;37.89
21449;BME280;10885;52.830;13.788;2023-03-18T14:57:49;100728.69;;;19.25;38.48
21449;BME280;10885;52.830;13.788;2023-03-18T15:03:23;100736.78;;;19.37;38.41
21449;BME280;10885;52.830;13.788;2023-03-18T15:08:57;100719.34;;;18.97;39.13
21449;BME280;10885;52.830;13.788;2023-03-18T15:19:45;100726.84;;;18.22;41.12
21449;BME280;10885;52.830;13.788;2023-03-18T15:25:06;100727.59;;;17.89;42.12
21449;BME280;10885;52.830;13.788;2023-03-18T15:30:30;100738.91;;;17.92;42.53
21449;BME280;10885;52.830;13.788;2023-03-18T15:35:56;100721.97;;;18.03;42.19
21449;BME280;10885;52.830;13.788;2023-03-18T15:41:20;100723.22;;;17.87;42.93
21449;BME280;10885;52.830;13.788;2023-03-18T15:46:45;100734.47;;;17.87;43.07
21449;BME280;10885;52.830;13.788;2023-03-18T15:52:06;100728.44;;;17.88;43.00
21449;BME280;10885;52.830;13.788;2023-03-18T15:57:32;100740.41;;;17.83;43.57
21449;BME280;10885;52.830;13.788;2023-03-18T16:02:54;100741.56;;;17.66;43.96
21449;BME280;10885;52.830;13.788;2023-03-18T16:08:17;100752.78;;;17.66;43.97
21449;BME280;10885;52.830;13.788;2023-03-18T16:13:39;100753.28;;;17.55;44.16
21449;BME280;10885;52.830;13.788;2023-03-18T16:19:00;100757.41;;;17.48;44.51
21449;BME280;10885;52.830;13.788;2023-03-18T16:24:21;100765.56;;;17.33;44.74
21449;BME280;10885;52.830;13.788;2023-03-18T16:29:43;100767.78;;;17.22;45.49
21449;BME280;10885;52.830;13.788;2023-03-18T16:35:04;100769.84;;;17.05;45.98
21449;BME280;10885;52.830;13.788;2023-03-18T16:40:27;100770.44;;;16.98;46.38
21449;BME280;10885;52.830;13.788;2023-03-18T16:45:49;100785.69;;;16.66;48.02
21449;BME280;10885;52.830;13.788;2023-03-18T16:51:10;100787.41;;;16.42;48.53
21449;BME280;10885;52.830;13.788;2023-03-18T16:56:32;100790.63;;;16.36;48.57
21449;BME280;10885;52.830;13.788;2023-03-18T17:01:53;100794.16;;;16.38;48.72
21449;BME280;10885;52.830;13.788;2023-03-18T17:07:14;100798.47;;;16.38;48.90
21449;BME280;10885;52.830;13.788;2023-03-18T17:12:35;100794.88;;;16.34;49.30
21449;BME280;10885;52.830;13.788;2023-03-18T17:17:57;100801.41;;;16.24;49.54
21449;BME280;10885;52.830;13.788;2023-03-18T17:23:27;100813.63;;;16.06;50.97
21449;BME280;10885;52.830;13.788;2023-03-18T17:28:48;100824.84;;;15.84;50.76
21449;BME280;10885;52.830;13.788;2023-03-18T17:34:12;100824.25;;;15.70;51.24
21449;BME280;10885;52.830;13.788;2023-03-18T17:39:33;100837.31;;;15.52;51.72
21449;BME280;10885;52.830;13.788;2023-03-18T17:44:54;100836.47;;;15.32;52.16
21449;BME280;10885;52.830;13.788;2023-03-18T17:50:16;100834.69;;;15.10;52.80
21449;BME280;10885;52.830;13.788;2023-03-18T17:55:38;100835.06;;;15.00;52.96
21449;BME280;10885;52.830;13.788;2023-03-18T18:01:17;100841.34;;;14.85;53.30
21449;BME280;10885;52.830;13.788;2023-03-18T18:06:39;100842.97;;;14.64;53.43
21449;BME280;10885;52.830;13.788;2023-03-18T18:11:59;100836.66;;;14.39;53.95
21449;BME280;10885;52.830;13.788;2023-03-18T18:17:22;100834.78;;;14.17;54.60
21449;BME280;10885;52.830;13.788;2023-03-18T18:22:52;100842.91;;;14.07;55.11
21449;BME280;10885;52.830;13.788;2023-03-18T18:28:16;100838.25;;;13.82;55.20
21449;BME280;10885;52.830;13.788;2023-03-18T18:33:40;100846.44;;;13.55;56.16
21449;BME280;10885;52.830;13.788;2023-03-18T18:39:02;100837.53;;;13.32;56.59
21449;BME280;10885;52.830;13.788;2023-03-18T18:44:24;100837.63;;;13.17;56.60
21449;BME280;10885;52.830;13.788;2023-03-18T18:49:45;100838.84;;;13.07;56.98
21449;BME280;10885;52.830;13.788;2023-03-18T18:55:07;100851.88;;;12.94;57.22
21449;BME280;10885;52.830;13.788;2023-03-18T19:00:29;100863.22;;;12.81;57.71
21449;BME280;10885;52.830;13.788;2023-03-18T19:05:52;100852.34;;;12.70;58.32
21449;BME280;10885;52.830;13.788;2023-03-18T19:11:14;100862.22;;;12.63;58.48
21449;BME280;10885;52.830;13.788;2023-03-18T19:16:34;100857.91;;;12.62;58.14
21449;BME280;10885;52.830;13.788;2023-03-18T19:21:55;100858.69;;;12.61;58.14
21449;BME280;10885;52.830;13.788;2023-03-18T19:27:28;100858.59;;;12.59;58.14
21449;BME280;10885;52.830;13.788;2023-03-18T19:32:50;100856.63;;;12.53;58.12
21449;BME280;10885;52.830;13.788;2023-03-18T19:38:18;100868.41;;;12.50;58.07
21449;BME280;10885;52.830;13.788;2023-03-18T19:43:41;100869.75;;;12.43;58.13
21449;BME280;10885;52.830;13.788;2023-03-18T19:49:09;100876.34;;;12.38;58.14
21449;BME280;10885;52.830;13.788;2023-03-18T19:54:34;100877.84;;;12.34;57.86
21449;BME280;10885;52.830;13.788;2023-03-18T19:59:57;100877.78;;;12.33;57.71
21449;BME280;10885;52.830;13.788;2023-03-18T20:05:21;100887.09;;;12.31;57.91
21449;BME280;10885;52.830;13.788;2023-03-18T20:10:43;100892.41;;;12.34;57.87
21449;BME280;10885;52.830;13.788;2023-03-18T20:16:05;100884.84;;;12.37;59.04
21449;BME280;10885;52.830;13.788;2023-03-18T20:21:28;100890.72;;;12.34;58.09
21449;BME280;10885;52.830;13.788;2023-03-18T20:26:50;100890.91;;;12.23;58.95
21449;BME280;10885;52.830;13.788;2023-03-18T20:32:12;100884.22;;;12.10;58.78
21449;BME280;10885;52.830;13.788;2023-03-18T20:37:33;100898.03;;;11.97;58.72
21449;BME280;10885;52.830;13.788;2023-03-18T20:42:54;100904.94;;;11.83;59.72
21449;BME280;10885;52.830;13.788;2023-03-18T20:48:15;100906.81;;;11.71;59.92
21449;BME280;10885;52.830;13.788;2023-03-18T20:53:37;100904.84;;;11.67;59.95
21449;BME280;10885;52.830;13.788;2023-03-18T20:58:58;100908.66;;;11.59;59.35
21449;BME280;10885;52.830;13.788;2023-03-18T21:04:19;100911.59;;;11.50;59.63
21449;BME280;10885;52.830;13.788;2023-03-18T21:09:40;100917.25;;;11.44;59.42
21449;BME280;10885;52.830;13.788;2023-03-18T21:15:01;100911.03;;;11.41;59.56
21449;BME280;10885;52.830;13.788;2023-03-18T21:20:26;100908.78;;;11.32;59.60
21449;BME280;10885;52.830;13.788;2023-03-18T21:25:49;100909.25;;;11.25;59.78
21449;BME280;10885;52.830;13.788;2023-03-18T21:31:21;100916.66;;;11.20;59.74
21449;BME280;10885;52.830;13.788;2023-03-18T21:36:43;100910.38;;;11.15;59.78
21449;BME280;10885;52.830;13.788;2023-03-18T21:42:03;100911.06;;;11.12;60.24
21449;BME280;10885;52.830;13.788;2023-03-18T21:47:25;100915.91;;;11.08;59.08
21449;BME280;10885;52.830;13.788;2023-03-18T21:52:47;100909.63;;;11.03;59.86
21449;BME280;10885;52.830;13.788;2023-03-18T21:58:19;100907.16;;;11.04;59.85
21449;BME280;10885;52.830;13.788;2023-03-18T22:03:40;100905.56;;;11.06;59.72
21449;BME280;10885;52.830;13.788;2023-03-18T22:09:02;100912.19;;;11.03;60.81
21449;BME280;10885;52.830;13.788;2023-03-18T22:14:23;100912.69;;;10.97;60.24
21449;BME280;10885;52.830;13.788;2023-03-18T22:19:44;100912.94;;;10.87;61.29
